Time;durP1;ratioP1;P1;durP2;ratioP2;P2;SDS_P1;SDS_P2;PMS_P1;PMS_P2;Temp;Humidity;BMP_temperature;BMP_pressure;BME280_temperature;BME280_humidity;BME280_pressure;Samples;Min_cycle;Max_cycle;Signal;HPM_P1;HPM_P2
2023/07/13 00:02:32;;;;;;;9.70;5.28;;;;;;;;;;4897149;29;20056;-84
2023/07/13 00:05:18;;;;;;;7.70;5.15;;;;;;;;;;4906710;29;20048;-84
2023/07/13 00:08:03;;;;;;;7.50;5.03;;;;;;;;;;4908821;29;20041;-84
2023/07/13 00:10:54;;;;;;;10.07;5.18;;;;;;;;;;4907052;29;20048;-84
2023/07/13 00:13:40;;;;;;;10.43;5.30;;;;;;;;;;4891184;29;20407;-84
2023/07/13 00:16:26;;;;;;;7.40;5.03;;;;;;;;;;4902762;29;20045;-84
2023/07/13 00:19:12;;;;;;;9.98;5.13;;;;;;;;;;4903567;29;20495;-83
2023/07/13 00:21:58;;;;;;;10.32;5.80;;;;;;;;;;4892409;29;20049;-83
2023/07/13 00:24:44;;;;;;;8.93;5.50;;;;;;;;;;4904891;29;20049;-83
2023/07/13 00:27:31;;;;;;;11.57;5.75;;;;;;;;;;4900435;29;20410;-83
2023/07/13 00:30:17;;;;;;;7.45;5.43;;;;;;;;;;4899900;29;20045;-83
2023/07/13 00:33:02;;;;;;;13.07;5.80;;;;;;;;;;4905169;29;20044;-83
2023/07/13 00:35:48;;;;;;;8.30;5.80;;;;;;;;;;4897222;29;20052;-83
2023/07/13 00:38:33;;;;;;;11.85;6.13;;;;;;;;;;4906018;29;20048;-83
2023/07/13 00:41:19;;;;;;;11.02;5.72;;;;;;;;;;4884809;29;20410;-83
2023/07/13 00:44:05;;;;;;;9.32;5.82;;;;;;;;;;4898243;29;20045;-82
2023/07/13 00:46:52;;;;;;;7.72;5.47;;;;;;;;;;4904065;29;20056;-83
2023/07/13 00:49:37;;;;;;;7.65;5.38;;;;;;;;;;4905401;29;20044;-83
2023/07/13 00:52:23;;;;;;;11.23;5.20;;;;;;;;;;4906286;29;20040;-83
2023/07/13 00:55:11;;;;;;;8.30;5.15;;;;;;;;;;4903234;29;20048;-83
2023/07/13 00:57:57;;;;;;;7.63;5.35;;;;;;;;;;4902007;29;20403;-83
2023/07/13 01:00:44;;;;;;;7.65;5.20;;;;;;;;;;4894202;29;20044;-83
2023/07/13 01:03:29;;;;;;;6.15;4.90;;;;;;;;;;4901755;29;20494;-83
2023/07/13 01:06:17;;;;;;;8.55;5.32;;;;;;;;;;4881478;29;20052;-83
2023/07/13 01:09:04;;;;;;;8.00;5.57;;;;;;;;;;4880756;29;20048;-82
2023/07/13 01:11:49;;;;;;;10.20;5.47;;;;;;;;;;4894149;29;20049;-83
2023/07/13 01:14:35;;;;;;;8.98;5.68;;;;;;;;;;4902383;29;20048;-83
2023/07/13 01:17:20;;;;;;;11.40;5.47;;;;;;;;;;4889217;29;20040;-82
2023/07/13 01:20:08;;;;;;;11.75;5.55;;;;;;;;;;4887301;29;20399;-77
2023/07/13 01:22:54;;;;;;;9.88;5.07;;;;;;;;;;4901401;29;20489;-76
2023/07/13 01:25:40;;;;;;;8.80;5.40;;;;;;;;;;4905903;29;20044;-76
2023/07/13 01:28:27;;;;;;;8.02;5.68;;;;;;;;;;4905935;29;20044;-76
2023/07/13 01:31:13;;;;;;;8.63;5.40;;;;;;;;;;4893044;29;20037;-76
2023/07/13 01:33:58;;;;;;;7.88;4.95;;;;;;;;;;4900620;29;20053;-76
2023/07/13 01:36:45;;;;;;;8.40;5.50;;;;;;;;;;4906168;29;20049;-76
2023/07/13 01:39:31;;;;;;;9.32;5.32;;;;;;;;;;4900502;29;20037;-76
2023/07/13 01:42:17;;;;;;;13.52;5.30;;;;;;;;;;4900479;29;20045;-76
2023/07/13 01:45:03;;;;;;;9.52;5.40;;;;;;;;;;4892845;29;20040;-76
2023/07/13 01:47:49;;;;;;;7.53;5.55;;;;;;;;;;4892557;29;20118;-76
2023/07/13 01:50:35;;;;;;;9.85;6.07;;;;;;;;;;4906065;29;20041;-77
2023/07/13 01:53:21;;;;;;;6.28;5.25;;;;;;;;;;4900657;29;20048;-76
2023/07/13 01:56:07;;;;;;;8.02;5.30;;;;;;;;;;4900303;29;20040;-77
2023/07/13 01:58:52;;;;;;;6.22;4.95;;;;;;;;;;4888449;29;20049;-74
2023/07/13 02:01:37;;;;;;;10.38;5.78;;;;;;;;;;4900192;29;20395;-75
2023/07/13 02:04:24;;;;;;;8.43;5.15;;;;;;;;;;4899902;29;20036;-74
2023/07/13 02:07:10;;;;;;;10.65;5.40;;;;;;;;;;4905339;29;20052;-75
2023/07/13 02:09:56;;;;;;;9.90;5.63;;;;;;;;;;4900021;29;20044;-75
2023/07/13 02:12:42;;;;;;;9.05;5.90;;;;;;;;;;4892287;29;20044;-75
2023/07/13 02:15:27;;;;;;;13.35;4.93;;;;;;;;;;4899651;29;20056;-75
2023/07/13 02:18:16;;;;;;;8.32;5.00;;;;;;;;;;4900322;29;20407;-75
2023/07/13 02:21:02;;;;;;;7.70;5.30;;;;;;;;;;4906044;29;20053;-75
2023/07/13 02:23:48;;;;;;;12.63;6.38;;;;;;;;;;4899858;29;20048;-76
2023/07/13 02:26:35;;;;;;;12.07;5.50;;;;;;;;;;4899570;29;20048;-75
2023/07/13 02:29:21;;;;;;;9.27;5.93;;;;;;;;;;4899675;29;20048;-75
2023/07/13 02:32:07;;;;;;;14.20;6.22;;;;;;;;;;4899106;29;20048;-76
2023/07/13 02:34:52;;;;;;;12.48;5.88;;;;;;;;;;4898412;29;20053;-75
2023/07/13 02:37:37;;;;;;;10.57;8.02;;;;;;;;;;4899466;29;20052;-75
2023/07/13 02:40:23;;;;;;;11.02;7.43;;;;;;;;;;4899328;29;20045;-76
2023/07/13 02:43:09;;;;;;;12.15;7.40;;;;;;;;;;4891616;29;20052;-75
2023/07/13 02:45:54;;;;;;;10.23;6.40;;;;;;;;;;4891928;29;20399;-77
2023/07/13 02:48:40;;;;;;;12.45;6.88;;;;;;;;;;4899565;29;20052;-76
2023/07/13 02:51:26;;;;;;;10.95;5.90;;;;;;;;;;4905463;29;20044;-77
2023/07/13 02:54:13;;;;;;;12.88;5.80;;;;;;;;;;4891788;29;20048;-76
2023/07/13 02:56:59;;;;;;;9.23;5.82;;;;;;;;;;4891396;29;20056;-76
2023/07/13 02:59:44;;;;;;;14.73;6.63;;;;;;;;;;4898456;29;20491;-76
2023/07/13 03:02:30;;;;;;;7.03;5.57;;;;;;;;;;4899245;29;20053;-76
2023/07/13 03:05:16;;;;;;;15.48;5.68;;;;;;;;;;4891017;29;20044;-76
2023/07/13 03:08:03;;;;;;;10.05;6.10;;;;;;;;;;4891302;29;20406;-76
2023/07/13 03:11:02;;;;;;;8.82;5.72;;;;;;;;;;4891448;29;20414;-76
2023/07/13 03:13:50;;;;;;;9.48;6.07;;;;;;;;;;4890936;29;20506;-76
2023/07/13 03:16:37;;;;;;;8.18;5.90;;;;;;;;;;4891126;29;20048;-76
2023/07/13 03:19:23;;;;;;;8.10;5.60;;;;;;;;;;4899083;29;20044;-76
2023/07/13 03:22:10;;;;;;;9.25;5.72;;;;;;;;;;4891671;29;20056;-76
2023/07/13 03:24:56;;;;;;;10.93;5.75;;;;;;;;;;4890476;29;20048;-76
2023/07/13 03:27:42;;;;;;;9.10;5.60;;;;;;;;;;4890792;29;20052;-76
2023/07/13 03:30:29;;;;;;;11.20;5.80;;;;;;;;;;4890831;29;20483;-76
2023/07/13 03:33:14;;;;;;;8.88;5.60;;;;;;;;;;4903864;29;20052;-76
2023/07/13 03:36:00;;;;;;;13.27;5.85;;;;;;;;;;4890911;29;20096;-76
2023/07/13 03:38:57;;;;;;;11.65;6.65;;;;;;;;;;4890791;29;20056;-76
2023/07/13 03:41:45;;;;;;;11.82;5.75;;;;;;;;;;4885744;29;20490;-76
2023/07/13 03:44:32;;;;;;;11.57;6.10;;;;;;;;;;4890915;29;20048;-76
2023/07/13 03:47:17;;;;;;;12.50;7.13;;;;;;;;;;4898852;29;20049;-76
2023/07/13 03:50:04;;;;;;;12.27;6.78;;;;;;;;;;4890738;29;20479;-76
2023/07/13 03:52:49;;;;;;;10.55;6.40;;;;;;;;;;4898519;29;20053;-76
2023/07/13 03:55:35;;;;;;;13.07;6.45;;;;;;;;;;4890448;29;20048;-76
2023/07/13 03:58:34;;;;;;;9.98;7.13;;;;;;;;;;4888014;29;20414;-76
2023/07/13 04:01:27;;;;;;;14.35;8.18;;;;;;;;;;4890425;29;20048;-77
2023/07/13 04:04:15;;;;;;;21.73;7.28;;;;;;;;;;4898780;29;20483;-79
2023/07/13 04:07:00;;;;;;;12.43;6.93;;;;;;;;;;4890736;29;20057;-79
2023/07/13 04:09:45;;;;;;;12.38;6.95;;;;;;;;;;4898946;29;20037;-78
2023/07/13 04:12:33;;;;;;;15.20;7.68;;;;;;;;;;4891825;29;20048;-79
2023/07/13 04:15:18;;;;;;;14.23;7.30;;;;;;;;;;4895023;29;20045;-77
2023/07/13 04:18:03;;;;;;;19.15;8.00;;;;;;;;;;4902969;29;20064;-78
2023/07/13 04:20:50;;;;;;;13.75;7.55;;;;;;;;;;4898589;29;20048;-77
2023/07/13 04:23:37;;;;;;;16.52;7.85;;;;;;;;;;4898506;29;20053;-78
2023/07/13 04:26:23;;;;;;;17.02;7.50;;;;;;;;;;4905013;29;20044;-78
2023/07/13 04:29:08;;;;;;;20.80;8.65;;;;;;;;;;4904420;29;20045;-78
2023/07/13 04:31:53;;;;;;;17.17;7.53;;;;;;;;;;4897969;29;20048;-78
2023/07/13 04:34:39;;;;;;;14.88;7.32;;;;;;;;;;4898350;29;20052;-78
2023/07/13 04:37:26;;;;;;;16.13;7.18;;;;;;;;;;4900189;29;20391;-78
2023/07/13 04:40:12;;;;;;;16.38;7.25;;;;;;;;;;4901764;29;20045;-79
2023/07/13 04:42:57;;;;;;;14.82;6.53;;;;;;;;;;4901581;29;20048;-79
2023/07/13 04:45:43;;;;;;;17.65;7.38;;;;;;;;;;4901577;29;20053;-80
2023/07/13 04:48:28;;;;;;;13.80;6.90;;;;;;;;;;4908266;29;20052;-79
2023/07/13 04:51:13;;;;;;;18.23;6.90;;;;;;;;;;4901702;29;20045;-78
2023/07/13 04:53:59;;;;;;;16.65;6.53;;;;;;;;;;4901431;29;20052;-79
2023/07/13 04:56:45;;;;;;;11.35;5.85;;;;;;;;;;4907609;29;20491;-77
2023/07/13 04:59:31;;;;;;;18.33;6.25;;;;;;;;;;4901662;29;20060;-76
2023/07/13 05:02:17;;;;;;;16.63;7.78;;;;;;;;;;4901031;29;20049;-77
2023/07/13 05:05:03;;;;;;;26.45;12.98;;;;;;;;;;4901216;29;20482;-77
2023/07/13 05:07:49;;;;;;;25.08;10.52;;;;;;;;;;4900955;29;20044;-77
2023/07/13 05:10:35;;;;;;;15.40;7.47;;;;;;;;;;4907443;29;20052;-77
2023/07/13 05:13:22;;;;;;;12.65;6.00;;;;;;;;;;4907704;29;20041;-77
2023/07/13 05:16:07;;;;;;;12.68;6.53;;;;;;;;;;4901154;29;20048;-79
2023/07/13 05:18:53;;;;;;;10.40;6.30;;;;;;;;;;4900935;29;20048;-79
2023/07/13 05:21:39;;;;;;;11.38;5.88;;;;;;;;;;4906716;29;20041;-79
2023/07/13 05:24:24;;;;;;;13.05;5.80;;;;;;;;;;4900822;29;20052;-77
2023/07/13 05:27:10;;;;;;;10.98;6.40;;;;;;;;;;4906725;29;20044;-77
2023/07/13 05:29:56;;;;;;;18.35;6.25;;;;;;;;;;4899986;29;20049;-77
2023/07/13 05:32:41;;;;;;;13.82;6.00;;;;;;;;;;4906155;29;20052;-77
2023/07/13 05:35:27;;;;;;;14.00;6.45;;;;;;;;;;4900749;29;20052;-77
2023/07/13 05:38:12;;;;;;;17.67;6.53;;;;;;;;;;4900493;29;20048;-78
2023/07/13 05:40:58;;;;;;;11.27;5.95;;;;;;;;;;4906680;29;20040;-78
2023/07/13 05:43:43;;;;;;;14.45;6.50;;;;;;;;;;4900604;29;20045;-79
2023/07/13 05:46:29;;;;;;;11.57;6.10;;;;;;;;;;4906678;29;20056;-78
2023/07/13 05:49:15;;;;;;;20.25;6.20;;;;;;;;;;4906024;29;20044;-79
2023/07/13 05:52:00;;;;;;;17.50;6.63;;;;;;;;;;4906600;29;20045;-79
2023/07/13 05:54:46;;;;;;;19.42;6.55;;;;;;;;;;4906570;29;20398;-78
2023/07/13 05:57:31;;;;;;;13.60;6.55;;;;;;;;;;4905553;29;20049;-77
2023/07/13 06:00:17;;;;;;;19.23;6.68;;;;;;;;;;4906314;29;20044;-79
2023/07/13 06:03:03;;;;;;;15.05;6.20;;;;;;;;;;4906459;29;20048;-78
2023/07/13 06:05:50;;;;;;;17.60;6.03;;;;;;;;;;4906728;29;20466;-78
2023/07/13 06:08:35;;;;;;;15.20;5.95;;;;;;;;;;4899877;29;20045;-77
2023/07/13 06:11:25;;;;;;;13.55;6.15;;;;;;;;;;4900131;29;20048;-77
2023/07/13 06:14:10;;;;;;;7.10;5.30;;;;;;;;;;4900601;29;20053;-77
2023/07/13 06:16:56;;;;;;;9.50;5.45;;;;;;;;;;4906283;29;20398;-78
2023/07/13 06:19:42;;;;;;;16.00;5.40;;;;;;;;;;4899774;29;20044;-78
2023/07/13 06:22:28;;;;;;;10.23;5.35;;;;;;;;;;4905989;29;20048;-77
2023/07/13 06:25:13;;;;;;;13.38;6.00;;;;;;;;;;4904179;29;20053;-77
2023/07/13 06:27:59;;;;;;;10.20;6.03;;;;;;;;;;4900182;29;20048;-79
2023/07/13 06:30:44;;;;;;;11.30;6.00;;;;;;;;;;4906071;29;20048;-79
2023/07/13 06:33:30;;;;;;;13.88;6.38;;;;;;;;;;4899506;29;20052;-79
2023/07/13 06:36:16;;;;;;;13.02;5.95;;;;;;;;;;4905864;29;20048;-79
2023/07/13 06:39:02;;;;;;;16.00;6.40;;;;;;;;;;4899679;29;20402;-76
2023/07/13 06:41:48;;;;;;;16.33;6.38;;;;;;;;;;4899372;29;20048;-77
2023/07/13 06:44:33;;;;;;;12.55;5.80;;;;;;;;;;4899404;29;20491;-75
2023/07/13 06:47:19;;;;;;;16.58;5.97;;;;;;;;;;4905388;29;20507;-76
2023/07/13 06:50:05;;;;;;;16.25;6.43;;;;;;;;;;4905392;29;20487;-76
2023/07/13 06:52:50;;;;;;;15.43;6.55;;;;;;;;;;4905518;29;20048;-75
2023/07/13 06:55:37;;;;;;;16.20;6.72;;;;;;;;;;4905100;29;20044;-77
2023/07/13 06:58:23;;;;;;;11.40;6.45;;;;;;;;;;4902421;29;20049;-76
2023/07/13 07:01:09;;;;;;;10.70;6.18;;;;;;;;;;4898804;29;20044;-77
2023/07/13 07:03:55;;;;;;;13.45;6.22;;;;;;;;;;4905473;29;20044;-78
2023/07/13 07:06:41;;;;;;;12.98;5.78;;;;;;;;;;4905388;29;20504;-77
2023/07/13 07:09:27;;;;;;;9.98;5.45;;;;;;;;;;4905200;29;20052;-78
2023/07/13 07:12:12;;;;;;;15.30;6.68;;;;;;;;;;4898654;29;20041;-77
2023/07/13 07:14:58;;;;;;;13.07;6.15;;;;;;;;;;4897098;29;20052;-77
2023/07/13 07:17:44;;;;;;;13.57;5.88;;;;;;;;;;4897601;29;20044;-78
2023/07/13 07:20:30;;;;;;;7.90;4.75;;;;;;;;;;4898950;29;20053;-76
2023/07/13 07:23:16;;;;;;;10.23;5.22;;;;;;;;;;4898511;29;20048;-76
2023/07/13 07:26:02;;;;;;;7.32;4.72;;;;;;;;;;4898844;29;20056;-77
2023/07/13 07:28:46;;;;;;;8.02;5.28;;;;;;;;;;4884597;29;20044;-77
2023/07/13 07:31:31;;;;;;;11.63;6.05;;;;;;;;;;4904730;29;20394;-76
2023/07/13 07:34:17;;;;;;;12.68;5.65;;;;;;;;;;4904971;29;20045;-77
2023/07/13 07:37:03;;;;;;;11.45;5.38;;;;;;;;;;4898459;29;20479;-77
2023/07/13 07:39:48;;;;;;;14.52;5.35;;;;;;;;;;4898569;29;20387;-76
2023/07/13 07:42:34;;;;;;;10.60;5.72;;;;;;;;;;4898468;29;20045;-75
2023/07/13 07:45:20;;;;;;;14.02;6.00;;;;;;;;;;4898442;29;20052;-76
2023/07/13 07:48:06;;;;;;;10.65;5.40;;;;;;;;;;4898479;29;20060;-76
2023/07/13 07:50:52;;;;;;;11.65;5.53;;;;;;;;;;4898748;29;20041;-75
2023/07/13 07:53:37;;;;;;;10.80;5.10;;;;;;;;;;4904733;29;20045;-75
2023/07/13 07:56:23;;;;;;;13.20;5.50;;;;;;;;;;4898655;29;20045;-76
2023/07/13 07:59:09;;;;;;;9.73;4.43;;;;;;;;;;4865214;29;20500;-78
2023/07/13 08:01:54;;;;;;;9.80;5.10;;;;;;;;;;4860828;29;20050;-75
2023/07/13 08:04:39;;;;;;;13.60;5.15;;;;;;;;;;4861271;29;20049;-75
2023/07/13 08:07:25;;;;;;;7.60;4.88;;;;;;;;;;4867320;29;20472;-76
2023/07/13 08:10:11;;;;;;;10.43;4.93;;;;;;;;;;4867700;29;20053;-75
2023/07/13 08:12:56;;;;;;;10.65;4.53;;;;;;;;;;4870163;29;20065;-76
2023/07/13 08:15:42;;;;;;;10.15;4.90;;;;;;;;;;4872208;29;20045;-76
2023/07/13 08:18:30;;;;;;;7.28;4.90;;;;;;;;;;4870968;29;20045;-78
2023/07/13 08:21:17;;;;;;;9.20;4.97;;;;;;;;;;4867185;29;20050;-77
2023/07/13 08:24:02;;;;;;;8.80;4.60;;;;;;;;;;4870673;29;20050;-77
2023/07/13 08:26:47;;;;;;;9.65;4.97;;;;;;;;;;4869472;29;20396;-77
2023/07/13 08:29:33;;;;;;;7.97;4.88;;;;;;;;;;4863755;29;20057;-76
2023/07/13 08:32:20;;;;;;;17.17;5.32;;;;;;;;;;4864683;29;20046;-77
2023/07/13 08:35:06;;;;;;;8.02;5.03;;;;;;;;;;4870369;29;20488;-77
2023/07/13 08:37:52;;;;;;;8.90;5.78;;;;;;;;;;4864677;29;20057;-77
2023/07/13 08:40:40;;;;;;;12.27;5.63;;;;;;;;;;4870393;29;20057;-77
2023/07/13 08:43:34;;;;;;;13.18;5.97;;;;;;;;;;4872677;29;20038;-77
2023/07/13 08:46:34;;;;;;;12.82;5.97;;;;;;;;;;4869450;29;20053;-77
2023/07/13 08:49:23;;;;;;;10.85;6.10;;;;;;;;;;4864683;29;20050;-76
2023/07/13 08:52:33;;;;;;;10.65;5.43;;;;;;;;;;4870544;29;20041;-77
2023/07/13 08:55:22;;;;;;;13.95;6.80;;;;;;;;;;4864174;29;20042;-76
2023/07/13 08:58:14;;;;;;;7.13;5.50;;;;;;;;;;4864074;29;20499;-77
2023/07/13 09:01:10;;;;;;;15.68;5.57;;;;;;;;;;4870379;29;20050;-77
2023/07/13 09:03:58;;;;;;;9.68;5.85;;;;;;;;;;4865022;29;20495;-77
2023/07/13 09:06:51;;;;;;;15.68;5.40;;;;;;;;;;4870476;29;20045;-77
2023/07/13 09:10:03;;;;;;;19.30;5.88;;;;;;;;;;4863867;29;20053;-77
2023/07/13 09:12:59;;;;;;;16.42;6.40;;;;;;;;;;4863890;29;20037;-77
2023/07/13 09:15:46;;;;;;;14.38;6.30;;;;;;;;;;4869623;29;20049;-78
2023/07/13 09:18:44;;;;;;;13.27;5.80;;;;;;;;;;4870047;29;20053;-77
2023/07/13 09:21:33;;;;;;;16.85;5.90;;;;;;;;;;4869753;29;20053;-77
2023/07/13 09:24:36;;;;;;;10.65;5.30;;;;;;;;;;4862454;29;20045;-77
2023/07/13 09:27:28;;;;;;;13.38;5.30;;;;;;;;;;4863321;29;20511;-75
2023/07/13 09:30:13;;;;;;;12.57;5.60;;;;;;;;;;4869916;29;20500;-77
2023/07/13 09:32:59;;;;;;;13.18;5.53;;;;;;;;;;4863531;29;20050;-77
2023/07/13 09:35:45;;;;;;;8.60;5.50;;;;;;;;;;4869544;29;20041;-75
2023/07/13 09:38:31;;;;;;;9.10;4.93;;;;;;;;;;4869459;29;20050;-77
2023/07/13 09:41:37;;;;;;;10.25;5.07;;;;;;;;;;4869256;29;20049;-77
2023/07/13 09:44:54;;;;;;;8.55;5.00;;;;;;;;;;4869363;29;20053;-77
2023/07/13 09:47:40;;;;;;;7.88;4.68;;;;;;;;;;4869637;29;20045;-76
2023/07/13 09:50:26;;;;;;;10.20;4.47;;;;;;;;;;4863214;29;20057;-80
2023/07/13 09:53:16;;;;;;;9.77;4.72;;;;;;;;;;4869019;29;20400;-78
2023/07/13 09:56:01;;;;;;;8.20;4.28;;;;;;;;;;4868340;29;20447;-77
2023/07/13 09:58:48;;;;;;;12.60;4.47;;;;;;;;;;4865649;29;20057;-76
2023/07/13 10:01:36;;;;;;;8.30;4.72;;;;;;;;;;4869227;29;20046;-76
2023/07/13 10:04:33;;;;;;;5.85;4.50;;;;;;;;;;4868811;29;20057;-76
2023/07/13 10:07:22;;;;;;;8.05;4.20;;;;;;;;;;4863437;29;20053;-77
2023/07/13 10:10:20;;;;;;;11.85;4.45;;;;;;;;;;4862791;29;20042;-76
2023/07/13 10:13:26;;;;;;;10.30;4.80;;;;;;;;;;4868882;29;20049;-77
2023/07/13 10:16:12;;;;;;;7.63;4.22;;;;;;;;;;4868743;29;20049;-77
2023/07/13 10:19:06;;;;;;;10.27;4.65;;;;;;;;;;4867688;29;20049;-78
2023/07/13 10:22:13;;;;;;;7.40;4.60;;;;;;;;;;4868742;29;20053;-78
2023/07/13 10:25:00;;;;;;;9.45;4.45;;;;;;;;;;4867886;29;20061;-78
2023/07/13 10:27:48;;;;;;;8.30;4.50;;;;;;;;;;4861913;29;20041;-77
2023/07/13 10:30:38;;;;;;;9.65;4.50;;;;;;;;;;4868444;29;20049;-77
2023/07/13 10:33:24;;;;;;;5.38;4.32;;;;;;;;;;4862613;29;20512;-76
2023/07/13 10:36:15;;;;;;;5.95;4.07;;;;;;;;;;4868798;29;20046;-77
2023/07/13 10:39:04;;;;;;;8.52;4.63;;;;;;;;;;4868361;29;20049;-76
2023/07/13 10:41:55;;;;;;;6.55;4.53;;;;;;;;;;4861846;29;20057;-77
2023/07/13 10:44:40;;;;;;;13.77;4.97;;;;;;;;;;4868601;29;20483;-75
2023/07/13 10:47:27;;;;;;;8.18;5.07;;;;;;;;;;4868519;29;20045;-77
2023/07/13 10:50:21;;;;;;;9.45;4.97;;;;;;;;;;4868329;29;20057;-77
2023/07/13 10:53:26;;;;;;;10.18;4.57;;;;;;;;;;4868282;29;20484;-77
2023/07/13 10:56:29;;;;;;;12.10;4.75;;;;;;;;;;4860854;29;20404;-75
2023/07/13 10:59:25;;;;;;;15.10;4.95;;;;;;;;;;4863056;29;20057;-76
2023/07/13 11:02:20;;;;;;;9.45;5.22;;;;;;;;;;4867705;29;20051;-78
2023/07/13 11:05:41;;;;;;;11.40;5.63;;;;;;;;;;4861770;29;20053;-77
2023/07/13 11:08:37;;;;;;;10.25;5.20;;;;;;;;;;4823270;29;20058;-77
2023/07/13 11:11:26;;;;;;;16.85;5.13;;;;;;;;;;4868072;29;20045;-76
2023/07/13 11:14:31;;;;;;;12.70;5.30;;;;;;;;;;4868608;29;20053;-76
2023/07/13 11:17:49;;;;;;;14.35;5.22;;;;;;;;;;4868376;29;20049;-79
2023/07/13 11:20:39;;;;;;;9.05;4.78;;;;;;;;;;4867772;29;20037;-77
2023/07/13 11:23:30;;;;;;;9.50;5.13;;;;;;;;;;4867615;29;20049;-78
2023/07/13 11:26:41;;;;;;;9.43;4.53;;;;;;;;;;4861578;29;20404;-78
2023/07/13 11:29:39;;;;;;;11.88;4.85;;;;;;;;;;4867313;29;20049;-76
2023/07/13 11:32:30;;;;;;;11.60;4.70;;;;;;;;;;4867700;29;20049;-77
2023/07/13 11:35:23;;;;;;;11.88;5.07;;;;;;;;;;4867686;29;20045;-77
2023/07/13 11:38:39;;;;;;;10.52;4.30;;;;;;;;;;4867708;29;20041;-76
2023/07/13 11:41:29;;;;;;;9.57;5.03;;;;;;;;;;4868452;29;20046;-75
2023/07/13 11:44:18;;;;;;;11.48;4.78;;;;;;;;;;4867192;29;20050;-75
2023/07/13 11:47:11;;;;;;;10.65;5.22;;;;;;;;;;4867488;29;20049;-78
2023/07/13 11:49:59;;;;;;;17.48;5.20;;;;;;;;;;4861473;29;20399;-79
2023/07/13 11:52:45;;;;;;;9.05;4.70;;;;;;;;;;4867113;29;20045;-75
2023/07/13 11:55:31;;;;;;;11.70;5.32;;;;;;;;;;4867188;29;20492;-75
2023/07/13 11:58:23;;;;;;;9.18;4.57;;;;;;;;;;4860486;29;20062;-76
2023/07/13 12:01:21;;;;;;;11.13;4.45;;;;;;;;;;4861209;29;20060;-78
2023/07/13 12:04:13;;;;;;;10.38;4.90;;;;;;;;;;4867504;29;20053;-78
2023/07/13 12:07:12;;;;;;;10.85;4.68;;;;;;;;;;4860994;29;20057;-78
2023/07/13 12:10:19;;;;;;;11.82;4.60;;;;;;;;;;4861181;29;20049;-79
2023/07/13 12:13:07;;;;;;;6.28;4.03;;;;;;;;;;4867428;29;20053;-79
2023/07/13 12:15:54;;;;;;;12.13;4.57;;;;;;;;;;4860580;29;20080;-77
2023/07/13 12:18:39;;;;;;;5.43;3.85;;;;;;;;;;4867299;29;20049;-78
2023/07/13 12:21:33;;;;;;;8.20;4.30;;;;;;;;;;4866977;29;20049;-76
2023/07/13 12:24:22;;;;;;;7.63;4.32;;;;;;;;;;4861007;29;20041;-76
2023/07/13 12:27:24;;;;;;;5.63;4.07;;;;;;;;;;4867190;29;20480;-78
2023/07/13 12:30:37;;;;;;;6.28;3.83;;;;;;;;;;4861261;29;20046;-77
2023/07/13 12:33:28;;;;;;;7.97;3.90;;;;;;;;;;4866836;29;20045;-78
2023/07/13 12:36:13;;;;;;;9.43;4.40;;;;;;;;;;4860646;29;20496;-76
2023/07/13 12:39:06;;;;;;;8.20;4.15;;;;;;;;;;4861090;29;20045;-76
2023/07/13 12:41:53;;;;;;;7.53;4.20;;;;;;;;;;4860697;29;20049;-77
2023/07/13 12:44:41;;;;;;;8.98;4.40;;;;;;;;;;4860596;29;20410;-75
2023/07/13 12:47:28;;;;;;;7.50;4.10;;;;;;;;;;4867120;29;20504;-76
2023/07/13 12:50:18;;;;;;;11.68;4.45;;;;;;;;;;4860760;29;20046;-76
2023/07/13 12:53:08;;;;;;;7.10;3.97;;;;;;;;;;4859958;29;20468;-77
2023/07/13 12:56:01;;;;;;;7.45;4.10;;;;;;;;;;4860935;29;20053;-76
2023/07/13 12:58:54;;;;;;;7.85;4.05;;;;;;;;;;4865545;29;20050;-76
2023/07/13 13:01:39;;;;;;;7.90;4.32;;;;;;;;;;4868665;29;20049;-77
2023/07/13 13:04:25;;;;;;;12.02;4.45;;;;;;;;;;4863917;29;20053;-74
2023/07/13 13:07:10;;;;;;;10.60;3.83;;;;;;;;;;4870127;29;20045;-77
2023/07/13 13:09:56;;;;;;;9.63;4.57;;;;;;;;;;4869678;29;20041;-76
2023/07/13 13:12:44;;;;;;;9.40;4.47;;;;;;;;;;4863998;29;20049;-74
2023/07/13 13:15:30;;;;;;;8.82;4.13;;;;;;;;;;4869826;29;20045;-77
2023/07/13 13:18:21;;;;;;;10.35;4.13;;;;;;;;;;4863740;29;20061;-75
2023/07/13 13:21:06;;;;;;;7.47;4.18;;;;;;;;;;4869522;29;20049;-75
2023/07/13 13:23:53;;;;;;;9.75;4.40;;;;;;;;;;4868918;29;20049;-73
2023/07/13 13:26:41;;;;;;;7.38;4.03;;;;;;;;;;4869756;29;20049;-74
2023/07/13 13:29:27;;;;;;;10.27;4.30;;;;;;;;;;4869595;29;20057;-77
2023/07/13 13:32:15;;;;;;;6.95;4.20;;;;;;;;;;4863576;29;20045;-77
2023/07/13 13:35:00;;;;;;;7.07;3.92;;;;;;;;;;4868464;29;20050;-76
2023/07/13 13:37:50;;;;;;;9.02;4.53;;;;;;;;;;4869592;29;20476;-75
2023/07/13 13:40:36;;;;;;;7.05;4.07;;;;;;;;;;4869683;29;20392;-75
2023/07/13 13:43:27;;;;;;;7.85;4.32;;;;;;;;;;4863083;29;20041;-76
2023/07/13 13:46:24;;;;;;;14.38;4.25;;;;;;;;;;4869162;29;20050;-77
2023/07/13 13:49:20;;;;;;;7.30;4.15;;;;;;;;;;4863199;29;20404;-76
2023/07/13 13:52:10;;;;;;;7.88;4.47;;;;;;;;;;4863346;29;20049;-76
2023/07/13 13:54:55;;;;;;;9.43;4.63;;;;;;;;;;4863313;29;20041;-76
2023/07/13 13:57:40;;;;;;;11.98;4.47;;;;;;;;;;4867966;29;20041;-76
2023/07/13 14:00:26;;;;;;;8.13;4.38;;;;;;;;;;4869289;29;20046;-76
2023/07/13 14:03:20;;;;;;;13.07;4.65;;;;;;;;;;4867764;29;20053;-77
2023/07/13 14:06:07;;;;;;;8.93;4.22;;;;;;;;;;4863017;29;20037;-76
2023/07/13 14:08:55;;;;;;;9.27;4.45;;;;;;;;;;4862689;29;20492;-77
2023/07/13 14:11:44;;;;;;;8.05;4.63;;;;;;;;;;4862473;29;20041;-77
2023/07/13 14:14:29;;;;;;;8.73;4.65;;;;;;;;;;4862761;29;20053;-77
2023/07/13 14:17:24;;;;;;;9.82;4.80;;;;;;;;;;4868978;29;20053;-76
2023/07/13 14:20:12;;;;;;;14.07;4.97;;;;;;;;;;4868802;29;20045;-76
2023/07/13 14:22:56;;;;;;;11.00;5.38;;;;;;;;;;4868266;29;20053;-77
2023/07/13 14:25:42;;;;;;;9.65;4.50;;;;;;;;;;4862797;29;20491;-75
2023/07/13 14:28:28;;;;;;;9.98;4.70;;;;;;;;;;4863630;29;20049;-77
2023/07/13 14:31:16;;;;;;;10.25;5.03;;;;;;;;;;4867531;29;20053;-76
2023/07/13 14:34:01;;;;;;;10.30;5.22;;;;;;;;;;4862029;29;20045;-77
2023/07/13 14:36:51;;;;;;;11.05;5.55;;;;;;;;;;4868561;29;20407;-78
2023/07/13 14:39:36;;;;;;;10.77;5.38;;;;;;;;;;4869405;29;20053;-76
2023/07/13 14:42:22;;;;;;;11.85;5.78;;;;;;;;;;4868507;29;20053;-76
2023/07/13 14:45:18;;;;;;;14.48;5.82;;;;;;;;;;4862182;29;20065;-76
2023/07/13 14:48:23;;;;;;;9.85;5.30;;;;;;;;;;4868074;29;20053;-77
2023/07/13 14:51:10;;;;;;;10.52;5.78;;;;;;;;;;4868205;29;20061;-76
2023/07/13 14:53:55;;;;;;;12.50;5.50;;;;;;;;;;4862315;29;20049;-77
2023/07/13 14:56:40;;;;;;;15.82;6.15;;;;;;;;;;4868415;29;20408;-77
2023/07/13 14:59:26;;;;;;;11.05;5.85;;;;;;;;;;4861749;29;20053;-77
2023/07/13 15:02:18;;;;;;;12.82;5.93;;;;;;;;;;4860812;29;20050;-77
2023/07/13 15:05:18;;;;;;;11.88;5.75;;;;;;;;;;4867991;29;20045;-77
2023/07/13 15:08:04;;;;;;;14.90;6.20;;;;;;;;;;4861696;29;20046;-77
2023/07/13 15:10:49;;;;;;;11.25;5.80;;;;;;;;;;4867109;29;20049;-77
2023/07/13 15:13:35;;;;;;;10.35;6.10;;;;;;;;;;4866502;29;20038;-76
2023/07/13 15:16:23;;;;;;;14.35;6.18;;;;;;;;;;4866832;29;20046;-77
2023/07/13 15:19:10;;;;;;;9.15;6.40;;;;;;;;;;4861279;29;20400;-77
2023/07/13 15:21:57;;;;;;;12.45;5.85;;;;;;;;;;4866538;29;20484;-76
2023/07/13 15:24:42;;;;;;;16.50;7.00;;;;;;;;;;4867448;29;20057;-76
2023/07/13 15:27:28;;;;;;;13.75;6.57;;;;;;;;;;4867514;29;20053;-78
2023/07/13 15:30:14;;;;;;;14.30;6.07;;;;;;;;;;4861552;29;20049;-76
2023/07/13 15:33:10;;;;;;;16.13;6.75;;;;;;;;;;4867911;29;20053;-75
2023/07/13 15:35:58;;;;;;;17.23;6.47;;;;;;;;;;4867665;29;20053;-76
2023/07/13 15:38:45;;;;;;;11.25;6.45;;;;;;;;;;4867735;29;20045;-76
2023/07/13 15:41:32;;;;;;;11.30;6.15;;;;;;;;;;4861397;29;20049;-75
2023/07/13 15:44:30;;;;;;;16.75;6.68;;;;;;;;;;4867813;29;20041;-75
2023/07/13 15:47:15;;;;;;;10.00;6.68;;;;;;;;;;4867360;29;20045;-75
2023/07/13 15:50:00;;;;;;;11.52;6.63;;;;;;;;;;4867441;29;20049;-77
2023/07/13 15:52:55;;;;;;;14.50;6.80;;;;;;;;;;4868196;29;20045;-76
2023/07/13 15:55:40;;;;;;;16.30;7.38;;;;;;;;;;4861160;29;20053;-75
2023/07/13 15:58:28;;;;;;;11.88;7.05;;;;;;;;;;4861036;29;20057;-75
2023/07/13 16:01:13;;;;;;;17.77;7.35;;;;;;;;;;4861059;29;20120;-76
2023/07/13 16:03:59;;;;;;;18.17;7.30;;;;;;;;;;4867071;29;20045;-75
2023/07/13 16:06:46;;;;;;;19.40;7.97;;;;;;;;;;4867429;29;20053;-75
2023/07/13 16:09:30;;;;;;;19.80;8.00;;;;;;;;;;4867148;29;20480;-75
2023/07/13 16:12:16;;;;;;;20.55;7.70;;;;;;;;;;4860913;29;20042;-76
2023/07/13 16:15:02;;;;;;;23.30;8.55;;;;;;;;;;4861621;29;20041;-77
2023/07/13 16:17:49;;;;;;;15.82;8.10;;;;;;;;;;4861255;29;20049;-77
2023/07/13 16:20:34;;;;;;;19.83;8.13;;;;;;;;;;4860921;29;20053;-75
2023/07/13 16:23:21;;;;;;;24.13;8.10;;;;;;;;;;4861005;29;20057;-75
2023/07/13 16:26:24;;;;;;;20.98;7.95;;;;;;;;;;4867001;29;20049;-77
2023/07/13 16:29:17;;;;;;;14.63;7.95;;;;;;;;;;4867143;29;20499;-76
2023/07/13 16:32:13;;;;;;;17.48;8.60;;;;;;;;;;4861174;29;20049;-74
2023/07/13 16:34:59;;;;;;;15.40;8.00;;;;;;;;;;4865040;29;20484;-75
2023/07/13 16:37:45;;;;;;;14.90;7.60;;;;;;;;;;4870803;29;20045;-74
2023/07/13 16:40:33;;;;;;;15.85;7.78;;;;;;;;;;4870418;29;20488;-76
2023/07/13 16:43:20;;;;;;;12.02;7.43;;;;;;;;;;4870237;29;20046;-74